Time;durP1;ratioP1;P1;durP2;ratioP2;P2;SDS_P1;SDS_P2;PMS_P1;PMS_P2;Temp;Humidity;BMP_temperature;BMP_pressure;BME280_temperature;BME280_humidity;BME280_pressure;Samples;Min_cycle;Max_cycle;Signal;HPM_P1;HPM_P2
2023/03/16 00:00:51;;;;;;;;;;;;;;;20.13;47.80;101387.63;2337282;75;51372;-73
2023/03/16 00:03:54;;;;;;;;;;;;;;;20.09;47.99;101382.27;2342970;75;51484;-74
2023/03/16 00:07:07;;;;;;;;;;;;;;;20.10;48.04;101388.81;2330254;75;50274;-73
2023/03/16 00:10:11;;;;;;;;;;;;;;;20.13;47.96;101387.13;2351943;75;51296;-73
2023/03/16 00:13:22;;;;;;;;;;;;;;;20.20;47.92;101395.33;2350566;75;22378;-74
2023/03/16 00:16:24;;;;;;;;;;;;;;;20.25;47.79;101391.61;2347807;75;50398;-74
2023/03/16 00:19:27;;;;;;;;;;;;;;;20.31;47.71;101400.81;2343832;75;50624;-74
2023/03/16 00:22:32;;;;;;;;;;;;;;;20.34;47.62;101395.08;2297218;75;51776;-73
2023/03/16 00:25:34;;;;;;;;;;;;;;;20.32;47.60;101395.75;2341866;75;22456;-73
2023/03/16 00:28:40;;;;;;;;;;;;;;;20.30;47.63;101399.98;2352222;75;50294;-73
2023/03/16 00:31:46;;;;;;;;;;;;;;;20.26;47.69;101396.47;2315795;75;22502;-72
2023/03/16 00:34:47;;;;;;;;;;;;;;;20.21;47.76;101400.51;2336649;75;22387;-73
2023/03/16 00:37:50;;;;;;;;;;;;;;;20.16;47.82;101403.39;2331762;75;51509;-73
2023/03/16 00:40:58;;;;;;;;;;;;;;;20.10;47.93;101406.28;2349061;75;22127;-73
2023/03/16 00:44:01;;;;;;;;;;;;;;;20.06;48.04;101401.42;2336901;75;23037;-73
2023/03/16 00:47:13;;;;;;;;;;;;;;;20.06;48.11;101405.45;2346087;75;49867;-72
2023/03/16 00:50:10;;;;;;;;;;;;;;;20.10;48.07;101411.66;2332134;75;22445;-73
2023/03/16 00:53:13;;;;;;;;;;;;;;;20.14;47.98;101411.66;2327603;75;22387;-73
2023/03/16 00:56:18;;;;;;;;;;;;;;;20.20;47.89;101411.45;2334773;75;50703;-74
2023/03/16 00:59:20;;;;;;;;;;;;;;;20.25;47.79;101409.59;2342021;75;50700;-73
2023/03/16 01:02:45;;;;;;;;;;;;;;;20.30;47.69;101408.55;2335986;75;22732;-73
2023/03/16 01:05:50;;;;;;;;;;;;;;;20.35;47.59;101411.55;2348346;75;50807;-73
2023/03/16 01:08:51;;;;;;;;;;;;;;;20.34;47.56;101416.06;2336908;75;22374;-74
2023/03/16 01:11:53;;;;;;;;;;;;;;;20.31;47.59;101414.25;2314253;75;50686;-74
2023/03/16 01:14:59;;;;;;;;;;;;;;;20.28;47.62;101419.98;2246654;78;51645;-73
2023/03/16 01:18:01;;;;;;;;;;;;;;;20.23;47.69;101421.33;2272829;76;51589;-72
2023/03/16 01:21:18;;;;;;;;;;;;;;;20.19;47.76;101423.20;2258436;78;51446;-73
2023/03/16 01:24:23;;;;;;;;;;;;;;;20.12;47.82;101423.08;2311724;76;52226;-73
2023/03/16 01:27:25;;;;;;;;;;;;;;;20.09;47.92;101421.22;2292629;76;51515;-73
2023/03/16 01:30:31;;;;;;;;;;;;;;;20.06;48.02;101416.20;2291998;76;50334;-72
2023/03/16 01:33:34;;;;;;;;;;;;;;;20.09;47.98;101411.34;2253340;78;50759;-72
2023/03/16 01:36:37;;;;;;;;;;;;;;;20.14;47.91;101413.47;2244726;78;52306;-72
2023/03/16 01:39:42;;;;;;;;;;;;;;;20.19;47.81;101415.99;2274567;76;51542;-73
2023/03/16 01:42:45;;;;;;;;;;;;;;;20.26;47.68;101408.56;2245974;78;51476;-73
2023/03/16 01:46:09;;;;;;;;;;;;;;;20.31;47.57;101411.56;2298733;76;51420;-73
2023/03/16 01:49:31;;;;;;;;;;;;;;;20.33;47.47;101412.23;2307826;76;22294;-73
2023/03/16 01:52:37;;;;;;;;;;;;;;;20.31;47.52;101418.28;2286199;76;23236;-73
2023/03/16 01:55:42;;;;;;;;;;;;;;;20.25;47.58;101414.96;2272577;77;22736;-74
2023/03/16 01:58:44;;;;;;;;;;;;;;;20.22;47.61;101422.36;2239147;78;24054;-73
2023/03/16 02:01:47;;;;;;;;;;;;;;;20.15;47.72;101417.86;2263505;77;52713;-73
2023/03/16 02:04:54;;;;;;;;;;;;;;;20.11;47.77;101414.66;2287783;76;50330;-74
2023/03/16 02:08:00;;;;;;;;;;;;;;;20.07;47.84;101416.05;2300835;76;50561;-74
2023/03/16 02:11:03;;;;;;;;;;;;;;;20.05;47.93;101415.37;2303440;76;24126;-73
2023/03/16 02:14:08;;;;;;;;;;;;;;;20.05;47.94;101410.00;2306527;76;22489;-73
2023/03/16 02:17:11;;;;;;;;;;;;;;;20.10;47.87;101406.28;2301813;76;22315;-73
2023/03/16 02:20:17;;;;;;;;;;;;;;;20.16;47.76;101400.71;2306388;76;51529;-74
2023/03/16 02:34:14;;;;;;;;;;;;;;;20.31;47.42;101407.53;2242565;78;22995;-72
2023/03/16 02:37:17;;;;;;;;;;;;;;;20.26;47.45;101405.88;2261049;78;51665;-73
2023/03/16 02:40:28;;;;;;;;;;;;;;;20.22;47.51;101404.06;2246390;77;51495;-73
2023/03/16 02:43:33;;;;;;;;;;;;;;;;;;2268891;77;50728;-73
2023/03/16 02:46:36;;;;;;;;;;;;;;;20.10;47.67;101410.31;2271681;78;22102;-73
2023/03/16 02:49:41;;;;;;;;;;;;;;;20.07;47.75;101421.41;2243586;78;51585;-73
2023/03/16 02:52:46;;;;;;;;;;;;;;;20.02;47.84;101411.70;2310567;76;50662;-73
2023/03/16 02:59:21;;;;;;;;;;;;;;;20.06;47.85;101413.52;2266851;77;23002;-73
2023/03/16 03:02:25;;;;;;;;;;;;;;;20.11;47.77;101407.11;2292581;76;22279;-72
2023/03/16 03:05:26;;;;;;;;;;;;;;;20.17;47.65;101415.33;2265916;77;50401;-73
2023/03/16 03:08:31;;;;;;;;;;;;;;;20.22;47.57;101416.98;2230413;79;51191;-73
2023/03/16 03:11:34;;;;;;;;;;;;;;;20.26;47.49;101416.11;2240297;79;22481;-73
2023/03/16 03:21:55;;;;;;;;;;;;;;;20.29;47.36;101431.05;2261811;78;22297;-73
2023/03/16 03:24:59;;;;;;;;;;;;;;;20.25;47.41;101437.80;2249344;78;22310;-73
2023/03/16 03:28:02;;;;;;;;;;;;;;;20.20;47.44;101439.67;2249922;77;22483;-72
2023/03/16 03:31:04;;;;;;;;;;;;;;;20.15;47.53;101433.98;2259102;77;23225;-73
2023/03/16 03:34:07;;;;;;;;;;;;;;;20.10;47.58;101440.37;2266038;77;50708;-73
2023/03/16 03:37:13;;;;;;;;;;;;;;;20.04;47.68;101433.00;2298588;76;51482;-74
2023/03/16 03:40:15;;;;;;;;;;;;;;;20.01;47.77;101436.86;2308474;76;22524;-73
2023/03/16 03:43:20;;;;;;;;;;;;;;;20.05;47.74;101438.20;2289417;76;51529;-73
2023/03/16 03:46:25;;;;;;;;;;;;;;;20.09;47.65;101434.17;2241545;77;51251;-73
2023/03/16 03:49:31;;;;;;;;;;;;;;;20.16;47.52;101440.50;2258350;78;23521;-74
2023/03/16 03:52:32;;;;;;;;;;;;;;;20.23;47.38;101445.52;2249666;77;22988;-73
2023/03/16 03:55:37;;;;;;;;;;;;;;;20.29;47.25;101443.14;2274210;77;50679;-73
2023/03/16 03:58:40;;;;;;;;;;;;;;;20.32;47.15;101447.68;2236827;78;22699;-74
2023/03/16 04:01:41;;;;;;;;;;;;;;;20.29;47.17;101453.89;2266156;77;51418;-74
2023/03/16 04:04:44;;;;;;;;;;;;;;;20.26;47.20;101440.81;2292349;76;51613;-73
2023/03/16 04:07:47;;;;;;;;;;;;;;;20.21;47.25;101442.16;2278220;76;50373;-73
2023/03/16 04:10:50;;;;;;;;;;;;;;;20.18;47.31;101442.52;2234582;78;51349;-73
2023/03/16 04:13:56;;;;;;;;;;;;;;;20.13;47.36;101443.55;2270548;77;50699;-73
2023/03/16 04:16:58;;;;;;;;;;;;;;;20.08;47.47;101448.60;2277760;77;22453;-73
2023/03/16 04:20:05;;;;;;;;;;;;;;;20.01;47.60;101443.10;2287032;77;50155;-74
2023/03/16 04:23:05;;;;;;;;;;;;;;;20.01;47.65;101448.95;2236688;78;22502;-73
2023/03/16 04:26:07;;;;;;;;;;;;;;;20.04;47.63;101437.89;2245320;78;51518;-74
2023/03/16 04:29:09;;;;;;;;;;;;;;;20.10;47.52;101447.92;2270190;77;51495;-73
2023/03/16 04:32:13;;;;;;;;;;;;;;;20.14;47.41;101443.03;2269536;78;51393;-72
2023/03/16 04:35:17;;;;;;;;;;;;;;;20.20;47.28;101443.19;2273070;77;22966;-72
2023/03/16 04:38:18;;;;;;;;;;;;;;;20.27;47.17;101446.50;2280132;77;23008;-73
2023/03/16 04:41:22;;;;;;;;;;;;;;;20.26;47.14;101447.53;2262752;76;51538;-72
2023/03/16 04:44:25;;;;;;;;;;;;;;;20.22;47.17;101450.57;2298849;76;22302;-72
2023/03/16 04:47:29;;;;;;;;;;;;;;;20.18;47.22;101449.23;2266017;76;51096;-72
2023/03/16 04:50:32;;;;;;;;;;;;;;;20.14;47.28;101454.64;2269646;77;51596;-72
2023/03/16 04:53:34;;;;;;;;;;;;;;;20.10;47.36;101447.92;2269597;77;51487;-73
2023/03/16 04:56:40;;;;;;;;;;;;;;;20.05;47.41;101451.64;2268780;76;51554;-72
2023/03/16 04:59:43;;;;;;;;;;;;;;;20.00;47.48;101449.98;2275645;78;22547;-73
2023/03/16 05:02:45;;;;;;;;;;;;;;;19.96;47.62;101446.81;2252232;78;22407;-72
2023/03/16 05:05:47;;;;;;;;;;;;;;;19.98;47.63;101455.51;2254497;77;51562;-73
2023/03/16 05:08:49;;;;;;;;;;;;;;;20.03;47.57;101460.87;2264194;77;50742;-73
2023/03/16 05:11:53;;;;;;;;;;;;;;;20.08;47.49;101455.31;2231462;78;51404;-72
2023/03/16 05:14:59;;;;;;;;;;;;;;;20.12;47.37;101459.34;2273989;77;50872;-72
2023/03/16 05:18:00;;;;;;;;;;;;;;;20.18;47.33;101463.18;2267776;78;22488;-73
2023/03/16 05:21:04;;;;;;;;;;;;;;;20.23;47.23;101464.33;2263694;77;50333;-73
2023/03/16 05:24:07;;;;;;;;;;;;;;;20.28;47.13;101457.61;2225959;77;51059;-73
2023/03/16 05:27:11;;;;;;;;;;;;;;;20.32;47.03;101463.81;2263079;78;51510;-73
2023/03/16 05:30:15;;;;;;;;;;;;;;;20.32;47.00;101461.60;2274871;77;22818;-74
2023/03/16 05:33:18;;;;;;;;;;;;;;;20.29;47.02;101468.67;2268249;77;50323;-74
2023/03/16 05:36:19;;;;;;;;;;;;;;;20.24;47.09;101471.88;2273296;77;50322;-73
2023/03/16 05:39:22;;;;;;;;;;;;;;;20.19;47.17;101474.25;2277739;77;50310;-73
2023/03/16 05:42:30;;;;;;;;;;;;;;;20.14;47.25;101472.11;2265315;78;50505;-73
2023/03/16 05:45:33;;;;;;;;;;;;;;;20.08;47.31;101471.44;2305883;76;23065;-74
2023/03/16 05:48:37;;;;;;;;;;;;;;;20.03;47.42;101470.28;2266366;77;21790;-73
2023/03/16 05:51:38;;;;;;;;;;;;;;;20.03;47.49;101478.34;2280916;77;22355;-74
2023/03/16 05:54:39;;;;;;;;;;;;;;;20.06;47.46;101479.34;2307616;76;51452;-74
2023/03/16 05:57:43;;;;;;;;;;;;;;;20.10;47.38;101480.68;2249019;77;50076;-74
2023/03/16 06:01:00;;;;;;;;;;;;;;;20.15;47.28;101483.17;2272223;77;51847;-74
2023/03/16 06:04:05;;;;;;;;;;;;;;;20.21;47.16;101485.67;2263975;77;22209;-73
2023/03/16 06:07:07;;;;;;;;;;;;;;;20.26;47.17;101494.05;2262713;76;22278;-75
2023/03/16 06:10:10;;;;;;;;;;;;;;;20.28;47.13;101496.58;2249818;77;50228;-73
2023/03/16 06:13:13;;;;;;;;;;;;;;;20.26;47.10;101495.91;2272859;77;22432;-73
2023/03/16 06:16:16;;;;;;;;;;;;;;;20.19;47.16;101493.92;2268712;77;50780;-74
2023/03/16 06:22:57;;;;;;;;;;;;;;;20.12;47.29;101500.98;2252240;77;23091;-74
2023/03/16 06:26:02;;;;;;;;;;;;;;;20.10;47.43;101501.66;2246394;78;50321;-73
2023/03/16 06:29:05;;;;;;;;;;;;;;;20.11;47.50;101508.70;2244752;77;50596;-74
2023/03/16 06:32:08;;;;;;;;;;;;;;;20.13;47.59;101512.06;2266725;78;51562;-74
2023/03/16 06:35:11;;;;;;;;;;;;;;;20.20;47.56;101507.68;2278585;78;50370;-74
2023/03/16 06:38:13;;;;;;;;;;;;;;;20.30;47.49;101517.41;2220632;79;53021;-74
2023/03/16 06:41:20;;;;;;;;;;;;;;;20.38;47.34;101513.34;2241042;78;51517;-75
2023/03/16 06:48:02;;;;;;;;;;;;;;;20.52;47.05;101520.66;2270137;77;24377;-75
2023/03/16 06:51:06;;;;;;;;;;;;;;;20.61;46.88;101528.23;2271846;77;22461;-75
2023/03/16 06:54:09;;;;;;;;;;;;;;;20.69;46.74;101532.22;2243936;77;22446;-74
2023/03/16 06:57:10;;;;;;;;;;;;;;;20.74;46.59;101542.45;2278489;77;22683;-74
2023/03/16 07:00:14;;;;;;;;;;;;;;;20.73;46.67;101538.07;2269892;77;49996;-74
2023/03/16 07:07:31;;;;;;;;;;;;;;;20.60;42.33;101544.88;2270358;78;22301;-74
2023/03/16 07:10:33;;;;;;;;;;;;;;;20.40;39.83;101543.58;2255246;78;50806;-73
2023/03/16 07:13:37;;;;;;;;;;;;;;;20.23;38.91;101547.64;2236437;79;50709;-74
2023/03/16 07:16:39;;;;;;;;;;;;;;;20.18;39.32;101557.23;2221280;78;49556;-73
2023/03/16 07:19:45;;;;;;;;;;;;;;;20.20;39.98;101557.39;2253871;78;51551;-73
2023/03/16 07:22:48;;;;;;;;;;;;;;;20.22;40.39;101562.09;2253011;78;22398;-74
2023/03/16 07:25:54;;;;;;;;;;;;;;;20.26;40.69;101559.89;2248790;78;50644;-74
2023/03/16 07:28:55;;;;;;;;;;;;;;;20.33;41.01;101568.12;2269955;77;22447;-73
2023/03/16 07:31:58;;;;;;;;;;;;;;;20.37;41.22;101562.23;2291403;76;51808;-74
2023/03/16 07:35:03;;;;;;;;;;;;;;;20.44;41.37;101571.77;2301621;76;51470;-73
2023/03/16 07:38:08;;;;;;;;;;;;;;;20.48;41.52;101579.00;2287826;77;23426;-73
2023/03/16 07:41:09;;;;;;;;;;;;;;;20.54;41.67;101576.95;2282601;77;22993;-73
2023/03/16 07:44:13;;;;;;;;;;;;;;;20.59;41.73;101576.79;2278538;77;51560;-73
2023/03/16 07:47:17;;;;;;;;;;;;;;;20.63;41.81;101578.13;2276844;78;50665;-74
2023/03/16 07:50:22;;;;;;;;;;;;;;;20.69;41.86;101577.94;2281533;77;22263;-73
2023/03/16 07:53:25;;;;;;;;;;;;;;;20.70;41.96;101582.29;2254927;78;51842;-73
2023/03/16 08:00:07;;;;;;;;;;;;;;;20.66;42.21;101578.30;2264813;77;23062;-73
2023/03/16 08:03:09;;;;;;;;;;;;;;;20.60;42.42;101577.62;2256011;78;51541;-72
2023/03/16 08:06:13;;;;;;;;;;;;;;;20.55;42.61;101587.58;2263976;77;51465;-72
2023/03/16 08:09:20;;;;;;;;;;;;;;;20.51;42.78;101586.20;2250388;78;50056;-72
2023/03/16 08:12:22;;;;;;;;;;;;;;;20.46;42.95;101587.23;2278688;77;50726;-72
2023/03/16 08:15:39;;;;;;;;;;;;;;;20.45;43.09;101597.66;2275570;77;50430;-73
2023/03/16 08:18:41;;;;;;;;;;;;;;;20.47;43.20;101589.41;2257193;78;50197;-73
2023/03/16 08:21:44;;;;;;;;;;;;;;;20.51;43.25;101592.92;2238550;78;51042;-73
2023/03/16 08:24:47;;;;;;;;;;;;;;;20.55;43.24;101592.95;2236425;77;22459;-73
2023/03/16 08:27:51;;;;;;;;;;;;;;;20.59;43.24;101588.06;2272316;77;50664;-72
2023/03/16 08:30:54;;;;;;;;;;;;;;;20.62;43.25;101583.16;2278260;77;51600;-73
2023/03/16 08:37:34;;;;;;;;;;;;;;;20.66;43.24;101593.08;2265210;78;22341;-73
2023/03/16 08:40:39;;;;;;;;;;;;;;;20.61;43.37;101599.48;2257278;77;23841;-72
2023/03/16 08:43:43;;;;;;;;;;;;;;;20.57;43.45;101601.66;2257123;78;23529;-75
2023/03/16 08:46:48;;;;;;;;;;;;;;;20.53;43.55;101602.17;2242931;78;52710;-75
2023/03/16 08:49:54;;;;;;;;;;;;;;;20.47;43.65;101606.87;2250500;78;22411;-75
2023/03/16 08:52:56;;;;;;;;;;;;;;;20.40;43.80;101602.71;2271033;77;50467;-73
2023/03/16 08:56:06;;;;;;;;;;;;;;;20.35;43.94;101611.80;2270360;78;50489;-75
2023/03/16 08:59:13;;;;;;;;;;;;;;;20.33;44.09;101607.92;2251547;78;51189;-75
2023/03/16 09:02:16;;;;;;;;;;;;;;;20.33;44.18;101616.50;2286688;77;22322;-75
2023/03/16 09:05:19;;;;;;;;;;;;;;;20.37;44.14;101611.09;2278935;77;53133;-74
2023/03/16 09:08:22;;;;;;;;;;;;;;;20.42;44.11;101611.42;2262683;77;50777;-75
2023/03/16 09:11:29;;;;;;;;;;;;;;;20.45;44.08;101615.13;2272686;78;23410;-75
2023/03/16 09:14:28;;;;;;;;;;;;;;;20.50;44.02;101618.62;2264868;78;22784;-73
2023/03/16 09:17:33;;;;;;;;;;;;;;;20.52;43.98;101620.13;2282574;78;51564;-75
2023/03/16 09:20:36;;;;;;;;;;;;;;;20.49;43.98;101615.62;2280082;77;51533;-75
2023/03/16 09:23:38;;;;;;;;;;;;;;;20.45;44.05;101617.83;2229703;77;52553;-75
2023/03/16 09:26:44;;;;;;;;;;;;;;;20.41;44.14;101628.58;2289656;77;50259;-75
2023/03/16 09:29:49;;;;;;;;;;;;;;;20.35;44.24;101623.38;2281745;77;51569;-74
2023/03/16 09:32:53;;;;;;;;;;;;;;;20.30;44.35;101623.05;2282327;77;51742;-73
2023/03/16 09:35:57;;;;;;;;;;;;;;;20.27;44.46;101627.91;2254479;77;50824;-74
2023/03/16 09:39:01;;;;;;;;;;;;;;;20.21;44.55;101628.92;2282772;77;50486;-74
2023/03/16 09:42:19;;;;;;;;;;;;;;;20.19;44.72;101636.34;2273558;78;22384;-75
2023/03/16 09:45:39;;;;;;;;;;;;;;;20.19;44.78;101628.77;2284229;77;51451;-75
2023/03/16 09:48:42;;;;;;;;;;;;;;;20.23;44.78;101634.98;2269741;77;50225;-73
2023/03/16 09:52:02;;;;;;;;;;;;;;;20.28;44.75;101632.30;2266681;77;50485;-75
2023/03/16 09:55:09;;;;;;;;;;;;;;;20.32;44.69;101630.93;2279619;77;22340;-75
2023/03/16 09:58:19;;;;;;;;;;;;;;;20.36;44.65;101629.59;2163011;81;51552;-75
2023/03/16 10:01:23;;;;;;;;;;;;;;;20.41;44.58;101637.98;2141894;81;52415;-75
2023/03/16 10:04:26;;;;;;;;;;;;;;;20.43;44.53;101635.97;2169602;80;51315;-75
2023/03/16 10:07:38;;;;;;;;;;;;;;;20.41;44.51;101636.64;2145079;81;50356;-75
2023/03/16 10:10:54;;;;;;;;;;;;;;;20.38;44.56;101633.79;2151017;81;51627;-75
2023/03/16 10:14:16;;;;;;;;;;;;;;;20.33;44.65;101629.94;2109358;81;51584;-75
2023/03/16 10:17:27;;;;;;;;;;;;;;;20.26;44.78;101629.77;2178640;80;22544;-75
2023/03/16 10:20:32;;;;;;;;;;;;;;;20.21;44.87;101627.58;2175758;80;50474;-75
2023/03/16 10:23:34;;;;;;;;;;;;;;;20.14;45.01;101618.55;2177581;80;22375;-75
2023/03/16 10:26:39;;;;;;;;;;;;;;;20.12;45.13;101626.44;2169310;80;51542;-75
2023/03/16 10:29:40;;;;;;;;;;;;;;;20.15;45.16;101634.16;2178261;80;22521;-75
2023/03/16 10:32:44;;;;;;;;;;;;;;;20.18;45.14;101619.87;2177514;80;50719;-75
2023/03/16 10:35:50;;;;;;;;;;;;;;;20.21;45.13;101627.58;2233364;77;50683;-74
2023/03/16 10:39:03;;;;;;;;;;;;;;;20.25;45.11;101625.92;2244615;78;50150;-74
2023/03/16 10:42:05;;;;;;;;;;;;;;;20.30;45.03;101628.43;2264510;78;22311;-73
2023/03/16 10:45:10;;;;;;;;;;;;;;;20.35;44.95;101620.69;2312095;76;50728;-74
2023/03/16 10:48:18;;;;;;;;;;;;;;;20.40;44.83;101614.30;2288261;76;24506;-74
2023/03/16 10:51:24;;;;;;;;;;;;;;;20.40;44.80;101616.16;2231069;77;52561;-74
2023/03/16 10:54:39;;;;;;;;;;;;;;;20.37;44.81;101604.38;2277938;77;52584;-74
2023/03/16 10:57:42;;;;;;;;;;;;;;;20.33;44.87;101607.09;2290188;76;50374;-73
2023/03/16 11:04:27;;;;;;;;;;;;;;;20.22;45.05;101610.98;2277160;76;22323;-74
2023/03/16 11:07:28;;;;;;;;;;;;;;;20.15;45.17;101606.78;2263303;77;22755;-73
2023/03/16 11:10:32;;;;;;;;;;;;;;;20.12;45.24;101613.84;2261418;77;51353;-74
2023/03/16 11:13:34;;;;;;;;;;;;;;;20.12;45.33;101607.64;2269356;76;50670;-74
2023/03/16 11:16:41;;;;;;;;;;;;;;;20.16;45.27;101605.76;2278441;76;52493;-74
2023/03/16 11:19:46;;;;;;;;;;;;;;;20.21;45.22;101606.08;2299958;76;50480;-73
2023/03/16 11:22:47;;;;;;;;;;;;;;;20.25;45.20;101601.73;2269312;77;24185;-74
2023/03/16 11:25:50;;;;;;;;;;;;;;;20.29;45.15;101601.71;2264110;76;51445;-73
2023/03/16 11:29:12;;;;;;;;;;;;;;;20.33;45.11;101597.69;2250565;77;51590;-72
2023/03/16 11:32:15;;;;;;;;;;;;;;;20.38;45.02;101589.95;2239318;76;50742;-73
2023/03/16 11:35:20;;;;;;;;;;;;;;;20.41;44.95;101590.94;2279102;77;50702;-73
2023/03/16 11:38:28;;;;;;;;;;;;;;;20.41;44.90;101590.94;2250151;77;23461;-73
2023/03/16 11:41:47;;;;;;;;;;;;;;;20.38;44.99;101588.09;2257810;78;22408;-74
2023/03/16 11:45:01;;;;;;;;;;;;;;;20.35;45.03;101590.30;2274203;77;50457;-73
2023/03/16 11:48:11;;;;;;;;;;;;;;;20.30;45.10;101585.94;2282618;78;22414;-74
2023/03/16 11:51:20;;;;;;;;;;;;;;;20.25;45.20;101580.23;2273442;77;22261;-73
2023/03/16 11:54:24;;;;;;;;;;;;;;;20.21;45.29;101571.66;2284420;78;51537;-74
2023/03/16 11:57:26;;;;;;;;;;;;;;;;;;2283827;77;50278;-74
2023/03/16 12:00:44;;;;;;;;;;;;;;;20.18;45.46;101571.50;2254455;78;50341;-75
2023/03/16 12:04:03;;;;;;;;;;;;;;;20.22;45.44;101564.78;2261770;78;49802;-75
2023/03/16 12:07:08;;;;;;;;;;;;;;;20.29;45.34;101563.58;2266661;77;22407;-74
2023/03/16 12:10:23;;;;;;;;;;;;;;;20.35;45.24;101564.77;2249974;78;51899;-74
2023/03/16 12:13:43;;;;;;;;;;;;;;;20.40;45.19;101551.64;2282963;77;51453;-74
2023/03/16 12:17:04;;;;;;;;;;;;;;;20.45;45.08;101542.55;2281836;76;51682;-75
2023/03/16 12:20:27;;;;;;;;;;;;;;;20.48;45.02;101550.77;2308156;76;50317;-74
2023/03/16 12:23:39;;;;;;;;;;;;;;;20.43;45.10;101548.59;2296361;76;22449;-74
2023/03/16 12:26:42;;;;;;;;;;;;;;;20.39;45.15;101535.99;2302992;77;22374;-75
2023/03/16 12:29:46;;;;;;;;;;;;;;;20.34;45.24;101540.22;2300603;76;53132;-75
2023/03/16 12:32:52;;;;;;;;;;;;;;;20.31;45.33;101537.38;2302954;76;50380;-74
2023/03/16 12:36:03;;;;;;;;;;;;;;;20.28;45.39;101539.06;2263044;77;51579;-75
2023/03/16 12:39:08;;;;;;;;;;;;;;;20.26;45.43;101527.64;2252574;76;22263;-73
2023/03/16 12:42:11;;;;;;;;;;;;;;;20.25;45.56;101529.18;2261823;78;22391;-75
2023/03/16 12:45:17;;;;;;;;;;;;;;;20.28;45.58;101525.63;2253681;78;50170;-75
2023/03/16 12:48:26;;;;;;;;;;;;;;;20.34;45.49;101518.72;2289486;76;51652;-75
2023/03/16 12:51:42;;;;;;;;;;;;;;;20.41;45.41;101510.30;2305534;77;50359;-72
2023/03/16 12:54:52;;;;;;;;;;;;;;;20.48;45.33;101509.94;2245404;77;22979;-74
2023/03/16 12:58:05;;;;;;;;;;;;;;;20.53;45.27;101506.22;2279473;76;51491;-74
2023/03/16 13:01:08;;;;;;;;;;;;;;;20.58;45.21;101511.94;2260142;76;23230;-75
2023/03/16 13:04:11;;;;;;;;;;;;;;;20.64;45.09;101509.05;2268243;77;22426;-74
2023/03/16 13:07:23;;;;;;;;;;;;;;;20.61;45.06;101496.80;2255433;77;51481;-75
2023/03/16 13:10:25;;;;;;;;;;;;;;;20.61;45.08;101506.20;2304517;76;51564;-75
2023/03/16 13:13:27;;;;;;;;;;;;;;;20.59;45.15;101493.95;2258581;77;51724;-75
2023/03/16 13:16:35;;;;;;;;;;;;;;;20.52;45.28;101491.08;2293905;77;49903;-75
2023/03/16 13:19:39;;;;;;;;;;;;;;;20.47;45.39;101481.87;2237168;78;22412;-74
2023/03/16 13:22:48;;;;;;;;;;;;;;;20.42;45.52;101485.94;2254903;78;22404;-74
2023/03/16 13:26:09;;;;;;;;;;;;;;;20.38;45.62;101481.08;2252400;76;51058;-74
2023/03/16 13:29:13;;;;;;;;;;;;;;;20.38;45.72;101478.39;2183674;79;22414;-74
2023/03/16 13:32:17;;;;;;;;;;;;;;;20.43;45.79;101481.39;2196845;79;51476;-72
2023/03/16 13:39:05;;;;;;;;;;;;;;;20.57;45.63;101492.77;2215035;78;22349;-75
2023/03/16 13:42:19;;;;;;;;;;;;;;;20.63;45.54;101497.97;2250905;77;50911;-75
2023/03/16 13:49:05;;;;;;;;;;;;;;;20.63;45.52;101489.39;2204722;78;22852;-74
2023/03/16 13:52:10;;;;;;;;;;;;;;;20.60;45.57;101486.20;2196508;78;51766;-74
2023/03/16 13:55:15;;;;;;;;;;;;;;;20.55;45.66;101483.20;2234893;78;22378;-74
2023/03/16 13:58:22;;;;;;;;;;;;;;;20.51;45.77;101469.25;2227437;78;51500;-74
2023/03/16 14:01:25;;;;;;;;;;;;;;;20.48;45.86;101466.92;2217929;78;50553;-74
2023/03/16 14:04:29;;;;;;;;;;;;;;;20.49;45.86;101456.48;2267036;76;52561;-75
2023/03/16 14:07:33;;;;;;;;;;;;;;;20.53;45.89;101458.34;2342648;75;49935;-74
2023/03/16 14:10:36;;;;;;;;;;;;;;;20.54;45.99;101446.55;2337750;75;51510;-72
2023/03/16 14:13:38;;;;;;;;;;;;;;;20.58;45.98;101448.75;2343844;75;50193;-74
2023/03/16 14:16:44;;;;;;;;;;;;;;;20.65;45.92;101448.38;2322699;75;51262;-73
2023/03/16 14:19:47;;;;;;;;;;;;;;;20.64;45.94;101446.69;2342708;75;23360;-75
2023/03/16 14:26:20;;;;;;;;;;;;;;;20.66;45.93;101453.25;2266378;76;22375;-74
2023/03/16 14:29:30;;;;;;;;;;;;;;;20.64;45.94;101445.86;2267461;77;50766;-74
2023/03/16 14:32:32;;;;;;;;;;;;;;;20.65;45.96;101448.86;2260601;78;50293;-75
2023/03/16 14:35:39;;;;;;;;;;;;;;;20.64;45.97;101446.69;2281638;78;51583;-74
2023/03/16 15:07:45;;;;;;;;;;;;;;;20.75;46.14;101398.38;2341649;75;22419;-75
2023/03/16 15:10:50;;;;;;;;;;;;;;;20.68;46.99;101401.95;2295855;75;52476;-75
2023/03/16 15:13:54;;;;;;;;;;;;;;;20.62;47.22;101400.82;2341626;75;50780;-75
2023/03/16 15:17:14;;;;;;;;;;;;;;;20.57;47.39;101394.62;2358289;75;21812;-75
2023/03/16 15:20:19;;;;;;;;;;;;;;;20.57;47.36;101392.45;2345643;75;51009;-75
2023/03/16 15:23:21;;;;;;;;;;;;;;;20.63;47.15;101381.84;2316795;75;23154;-75
2023/03/16 15:26:25;;;;;;;;;;;;;;;20.66;47.24;101377.44;2348112;75;50753;-74
2023/03/16 15:29:29;;;;;;;;;;;;;;;20.75;47.13;101382.75;2337918;75;22337;-75
2023/03/16 15:32:30;;;;;;;;;;;;;;;20.76;47.07;101381.75;2342166;75;50392;-77
2023/03/16 15:35:35;;;;;;;;;;;;;;;20.73;47.13;101386.98;2327898;75;51543;-75
2023/03/16 15:38:38;;;;;;;;;;;;;;;20.70;47.21;101381.11;2317411;75;50599;-75
2023/03/16 15:41:42;;;;;;;;;;;;;;;20.64;47.33;101375.42;2333767;75;51503;-75
2023/03/16 15:44:45;;;;;;;;;;;;;;;20.59;47.47;101376.98;2351979;75;50687;-75
2023/03/16 15:47:47;;;;;;;;;;;;;;;20.53;47.63;101385.23;2332622;75;52498;-75
2023/03/16 15:50:54;;;;;;;;;;;;;;;20.48;47.66;101372.00;2340598;75;50293;-74
2023/03/16 15:54:03;;;;;;;;;;;;;;;20.48;47.67;101374.69;2310703;75;51464;-73
2023/03/16 15:57:08;;;;;;;;;;;;;;;20.46;47.67;101356.03;2331052;75;22335;-75
2023/03/16 16:00:21;;;;;;;;;;;;;;;20.49;47.56;101364.25;2334621;75;51234;-75
2023/03/16 16:03:23;;;;;;;;;;;;;;;20.52;47.48;101361.20;2349982;75;51626;-76
2023/03/16 16:06:27;;;;;;;;;;;;;;;20.56;47.32;101362.05;2312966;76;52503;-76
2023/03/16 16:09:28;;;;;;;;;;;;;;;20.56;47.22;101355.33;2297167;76;22313;-75
2023/03/16 16:12:31;;;;;;;;;;;;;;;20.54;47.21;101356.48;2294035;76;49996;-74
2023/03/16 16:15:36;;;;;;;;;;;;;;;20.48;47.27;101355.36;2325960;75;22381;-75
2023/03/16 16:18:38;;;;;;;;;;;;;;;20.47;47.21;101366.27;2310590;76;22542;-75
2023/03/16 16:25:22;;;;;;;;;;;;;;;20.36;47.31;101359.46;2366053;75;24320;-75
2023/03/16 16:28:28;;;;;;;;;;;;;;;20.31;47.40;101352.44;2355502;75;22496;-75
2023/03/16 16:31:34;;;;;;;;;;;;;;;20.30;47.44;101354.80;2323582;76;51582;-74
2023/03/16 16:34:38;;;;;;;;;;;;;;;20.31;47.46;101359.16;2321477;75;52850;-76
2023/03/16 16:37:40;;;;;;;;;;;;;;;20.36;47.38;101360.29;2297926;76;51762;-74
2023/03/16 16:40:44;;;;;;;;;;;;;;;20.39;47.26;101367.99;2302110;76;50403;-74
2023/03/16 16:43:46;;;;;;;;;;;;;;;20.44;47.18;101363.44;2324375;76;22397;-75
2023/03/16 16:46:52;;;;;;;;;;;;;;;20.49;47.07;101358.36;2325691;75;51446;-74
2023/03/16 16:49:55;;;;;;;;;;;;;;;20.55;46.86;101356.35;2308980;76;23183;-76
2023/03/16 16:52:58;;;;;;;;;;;;;;;20.53;46.82;101354.31;2295841;75;50340;-74
2023/03/16 16:56:00;;;;;;;;;;;;;;;20.51;46.79;101345.58;2305259;75;50312;-76
2023/03/16 16:59:22;;;;;;;;;;;;;;;20.45;46.84;101340.93;2342056;75;50286;-75
2023/03/16 17:02:30;;;;;;;;;;;;;;;20.42;46.87;101341.27;2333444;75;22316;-75
2023/03/16 17:05:33;;;;;;;;;;;;;;;20.40;46.89;101341.98;2364969;75;50077;-75
2023/03/16 17:08:37;;;;;;;;;;;;;;;20.33;46.96;101339.66;2329210;75;50027;-75
2023/03/16 17:11:41;;;;;;;;;;;;;;;20.30;47.05;101331.96;2323886;75;50949;-75
2023/03/16 17:14:46;;;;;;;;;;;;;;;20.29;47.11;101328.41;2331179;75;51430;-74
2023/03/16 17:17:49;;;;;;;;;;;;;;;20.34;47.05;101335.95;2342486;75;50273;-75
2023/03/16 17:20:54;;;;;;;;;;;;;;;20.42;46.90;101338.58;2326289;76;50536;-75